Hauptseite
METAR-TAF:

METAR-TAF

Flughäfen :

Paganella, Italien

Breite: 46-09N, Länge: 011-02E, Höhe: 2125 m

Beobachtung

Neuester Wetterbericht von vor 31 Minuten, um 10:55 UTC
Wind 5 kt aus West/Südwest
Temperatur -2°C
Luftfeuchtigkeit 93%
Luftdruck 1017 hPa
Sichtweite: 0900 m
Gefrierender Nebel

METAR: LIVP 231055Z 24005KT 0900 FZFG VV/// M02/M03 Q1017 RMK MON INVIS VAL INVIS VIS MIN 0900

Zeit: 12:26 (11:26 UTC)


TAF: fehlend

Wetterbeobachtungen und Prognosen von mehr als 4000 Flughäfen (METAR und TAF Bericht).

Die verfügbaren Stationen werden durch gelbe und rote Markierungen auf der Karte dargestellt.

Führen Sie die Maus auf sie, um den Namen der Station zu sehen.

Darauf klicken, um die Beobachtung von Wetterbeobachtungen und Prognosen zu sehen.

Um die Karte zu ändern : klicken Sie auf den grünen Tasten mit einem schwarzen Kreuz Zum Vergrößern, auf den grünen Button mit einem Gedankenstrich zu verkleinern, oder auf die grünen Pfeile für benachbarte Karten.


METAR-TAF: